sensor_id;sensor_type;location;lat;lon;timestamp;pressure;altitude;pressure_sealevel;temperature;humidity
45113;BME280;30873;53.908;27.576;2022-11-06T00:03:53;1021.6;;;5.4;74.6
45113;BME280;30873;53.908;27.576;2022-11-06T00:09:21;1021.6;;;5.4;74.8
45113;BME280;30873;53.908;27.576;2022-11-06T00:14:01;1021.6;;;5.5;74.7
45113;BME280;30873;53.908;27.576;2022-11-06T00:18:53;1021.5;;;5.5;74.6
45113;BME280;30873;53.908;27.576;2022-11-06T00:24:11;1021.5;;;5.5;74.5
45113;BME280;30873;53.908;27.576;2022-11-06T00:29:21;1021.5;;;5.6;74.8
45113;BME280;30873;53.908;27.576;2022-11-06T00:34:25;1021.4;;;5.7;74.6
45113;BME280;30873;53.908;27.576;2022-11-06T00:38:53;1021.4;;;5.7;74.5
45113;BME280;30873;53.908;27.576;2022-11-06T00:44:13;1021.4;;;5.7;74.6
45113;BME280;30873;53.908;27.576;2022-11-06T00:49:35;1021.4;;;5.7;74.9
45113;BME280;30873;53.908;27.576;2022-11-06T00:54:33;1021.4;;;5.7;75
45113;BME280;30873;53.908;27.576;2022-11-06T00:59:11;1021.3;;;5.7;75.2
45113;BME280;30873;53.908;27.576;2022-11-06T01:03:53;1021.3;;;5.7;75.4
45113;BME280;30873;53.908;27.576;2022-11-06T01:09:01;1021.2;;;5.6;75.7
45113;BME280;30873;53.908;27.576;2022-11-06T01:14:35;1021.2;;;5.6;76.1
45113;BME280;30873;53.908;27.576;2022-11-06T01:19:21;1021.2;;;5.6;76.5
45113;BME280;30873;53.908;27.576;2022-11-06T01:24:21;1021.1;;;5.6;76.5
45113;BME280;30873;53.908;27.576;2022-11-06T01:29:39;1021.1;;;5.6;76.7
45113;BME280;30873;53.908;27.576;2022-11-06T01:34:13;1021;;;5.7;76.8
45113;BME280;30873;53.908;27.576;2022-11-06T01:38:51;1021;;;5.7;76.7
45113;BME280;30873;53.908;27.576;2022-11-06T01:45:32;1021;;;5.6;76.8
45113;BME280;30873;53.908;27.576;2022-11-06T01:49:29;1021;;;5.6;77.1
45113;BME280;30873;53.908;27.576;2022-11-06T01:54:05;1021;;;5.6;77.2
45113;BME280;30873;53.908;27.576;2022-11-06T01:58:53;1020.9;;;5.6;77.4
45113;BME280;30873;53.908;27.576;2022-11-06T02:04:30;1020.9;;;5.6;77.6
45113;BME280;30873;53.908;27.576;2022-11-06T02:09:37;1020.9;;;5.7;77.6
45113;BME280;30873;53.908;27.576;2022-11-06T02:14:06;1020.8;;;5.7;77.8
45113;BME280;30873;53.908;27.576;2022-11-06T02:19:01;1020.8;;;5.7;77.9
45113;BME280;30873;53.908;27.576;2022-11-06T02:24:09;1020.8;;;5.8;77.8
45113;BME280;30873;53.908;27.576;2022-11-06T02:29:41;1020.7;;;5.8;77.8
45113;BME280;30873;53.908;27.576;2022-11-06T02:34:11;1020.7;;;5.8;78
45113;BME280;30873;53.908;27.576;2022-11-06T02:39:39;1020.7;;;5.8;77.8
45113;BME280;30873;53.908;27.576;2022-11-06T02:44:37;1020.7;;;5.8;77.9
45113;BME280;30873;53.908;27.576;2022-11-06T02:49:05;1020.7;;;5.9;78
45113;BME280;30873;53.908;27.576;2022-11-06T02:54:29;1020.6;;;6;77.9
45113;BME280;30873;53.908;27.576;2022-11-06T02:59:27;1020.6;;;6;77.8
45113;BME280;30873;53.908;27.576;2022-11-06T03:04:07;1020.6;;;6;77.8
45113;BME280;30873;53.908;27.576;2022-11-06T03:09:39;1020.6;;;6;77.7
45113;BME280;30873;53.908;27.576;2022-11-06T03:14:16;1020.6;;;6.1;77.9
45113;BME280;30873;53.908;27.576;2022-11-06T03:19:28;1020.6;;;6.1;77.8
45113;BME280;30873;53.908;27.576;2022-11-06T03:24:12;1020.6;;;6.1;77.9
45113;BME280;30873;53.908;27.576;2022-11-06T03:29:40;1020.6;;;6.1;78
45113;BME280;30873;53.908;27.576;2022-11-06T03:34:16;1020.6;;;6.1;78
45113;BME280;30873;53.908;27.576;2022-11-06T03:39:05;1020.6;;;6.1;78
45113;BME280;30873;53.908;27.576;2022-11-06T03:44:18;1020.5;;;6.2;78
45113;BME280;30873;53.908;27.576;2022-11-06T03:49:40;1020.5;;;6.2;77.7
45113;BME280;30873;53.908;27.576;2022-11-06T03:54:40;1020.5;;;6.2;78.1
45113;BME280;30873;53.908;27.576;2022-11-06T03:59:40;1020.5;;;6.3;78
45113;BME280;30873;53.908;27.576;2022-11-06T04:04:06;1020.5;;;6.3;77.8
45113;BME280;30873;53.908;27.576;2022-11-06T04:09:29;1020.5;;;6.3;77.8
45113;BME280;30873;53.908;27.576;2022-11-06T04:14:26;1020.4;;;6.3;77.9
45113;BME280;30873;53.908;27.576;2022-11-06T04:19:15;1020.4;;;6.3;77.9
45113;BME280;30873;53.908;27.576;2022-11-06T04:24:42;1020.4;;;6.3;77.7
45113;BME280;30873;53.908;27.576;2022-11-06T04:29:06;1020.4;;;6.3;77.9
45113;BME280;30873;53.908;27.576;2022-11-06T04:34:26;1020.4;;;6.4;77.9
45113;BME280;30873;53.908;27.576;2022-11-06T04:38:52;1020.3;;;6.3;77.8
45113;BME280;30873;53.908;27.576;2022-11-06T04:44:40;1020.3;;;6.3;77.9
45113;BME280;30873;53.908;27.576;2022-11-06T04:49:11;1020.3;;;6.3;78
45113;BME280;30873;53.908;27.576;2022-11-06T04:53:53;1020.2;;;6.4;78.1
45113;BME280;30873;53.908;27.576;2022-11-06T04:59:17;1020.2;;;6.4;78
45113;BME280;30873;53.908;27.576;2022-11-06T05:04:37;1020.2;;;6.5;78
45113;BME280;30873;53.908;27.576;2022-11-06T05:09:29;1020.3;;;6.4;78
45113;BME280;30873;53.908;27.576;2022-11-06T05:14:39;1020.3;;;6.5;78
45113;BME280;30873;53.908;27.576;2022-11-06T05:19:05;1020.2;;;6.5;78.2
45113;BME280;30873;53.908;27.576;2022-11-06T05:24:39;1020.2;;;6.5;78.2
45113;BME280;30873;53.908;27.576;2022-11-06T05:29:25;1020.2;;;6.5;78.1
45113;BME280;30873;53.908;27.576;2022-11-06T05:34:15;1020.2;;;6.5;78.3
45113;BME280;30873;53.908;27.576;2022-11-06T05:39:39;1020.3;;;6.5;78.3
45113;BME280;30873;53.908;27.576;2022-11-06T05:44:05;1020.3;;;6.5;78.3
45113;BME280;30873;53.908;27.576;2022-11-06T05:49:25;1020.3;;;6.5;78.3
45113;BME280;30873;53.908;27.576;2022-11-06T05:54:05;1020.3;;;6.5;78.5
45113;BME280;30873;53.908;27.576;2022-11-06T05:59:39;1020.3;;;6.5;78.4
45113;BME280;30873;53.908;27.576;2022-11-06T06:04:15;1020.3;;;6.5;78.6
45113;BME280;30873;53.908;27.576;2022-11-06T06:08:51;1020.3;;;6.6;78.4
45113;BME280;30873;53.908;27.576;2022-11-06T06:14:17;1020.3;;;6.6;78.3
45113;BME280;30873;53.908;27.576;2022-11-06T06:19:41;1020.3;;;6.6;78.4
45113;BME280;30873;53.908;27.576;2022-11-06T06:24:40;1020.3;;;6.7;78.3
45113;BME280;30873;53.908;27.576;2022-11-06T06:29:41;1020.3;;;6.7;78.5
45113;BME280;30873;53.908;27.576;2022-11-06T06:34:05;1020.3;;;6.8;78.3
45113;BME280;30873;53.908;27.576;2022-11-06T06:39:29;1020.3;;;6.8;78.2
45113;BME280;30873;53.908;27.576;2022-11-06T06:44:13;1020.4;;;6.8;78.2
45113;BME280;30873;53.908;27.576;2022-11-06T06:49:05;1020.4;;;6.8;78.3
45113;BME280;30873;53.908;27.576;2022-11-06T06:54:41;1020.4;;;6.9;78.2
45113;BME280;30873;53.908;27.576;2022-11-06T06:58:53;1020.4;;;6.9;78.2
45113;BME280;30873;53.908;27.576;2022-11-06T07:04:41;1020.4;;;6.9;78.3
45113;BME280;30873;53.908;27.576;2022-11-06T07:09:09;1020.4;;;7;78.3
45113;BME280;30873;53.908;27.576;2022-11-06T07:14:23;1020.4;;;7.2;78
45113;BME280;30873;53.908;27.576;2022-11-06T07:19:17;1020.5;;;7.2;77.7
45113;BME280;30873;53.908;27.576;2022-11-06T07:24:03;1020.5;;;7.2;77.6
45113;BME280;30873;53.908;27.576;2022-11-06T07:29:15;1020.5;;;7.2;77.6
45113;BME280;30873;53.908;27.576;2022-11-06T07:34:27;1020.5;;;7.3;77.6
45113;BME280;30873;53.908;27.576;2022-11-06T07:38:57;1020.4;;;7.3;77.8
45113;BME280;30873;53.908;27.576;2022-11-06T07:44:41;1020.4;;;7.3;77.5
45113;BME280;30873;53.908;27.576;2022-11-06T07:48:53;1020.4;;;7.4;77.6
45113;BME280;30873;53.908;27.576;2022-11-06T07:54:27;1020.4;;;7.5;77.7
45113;BME280;30873;53.908;27.576;2022-11-06T07:59:23;1020.4;;;7.5;77.5
45113;BME280;30873;53.908;27.576;2022-11-06T08:04:33;1020.4;;;7.6;77.5
45113;BME280;30873;53.908;27.576;2022-11-06T08:09:41;1020.5;;;7.6;77.3
45113;BME280;30873;53.908;27.576;2022-11-06T08:13:53;1020.4;;;7.6;77.4
45113;BME280;30873;53.908;27.576;2022-11-06T08:19:09;1020.4;;;7.7;77.4
45113;BME280;30873;53.908;27.576;2022-11-06T08:24:13;1020.4;;;7.8;77.4
45113;BME280;30873;53.908;27.576;2022-11-06T08:29:15;1020.4;;;8;77.4
45113;BME280;30873;53.908;27.576;2022-11-06T08:34:05;1020.5;;;8.1;76.8
45113;BME280;30873;53.908;27.576;2022-11-06T08:38:53;1020.5;;;8.3;76.7
45113;BME280;30873;53.908;27.576;2022-11-06T08:44:17;1020.4;;;8.4;76
45113;BME280;30873;53.908;27.576;2022-11-06T08:49:27;1020.4;;;8.6;75.5
45113;BME280;30873;53.908;27.576;2022-11-06T08:54:11;1020.4;;;8.6;75.1
45113;BME280;30873;53.908;27.576;2022-11-06T08:59:43;1020.4;;;8.6;75.1
45113;BME280;30873;53.908;27.576;2022-11-06T09:04:05;1020.4;;;8.6;75.3
45113;BME280;30873;53.908;27.576;2022-11-06T09:09:31;1020.4;;;8.8;75.6
45113;BME280;30873;53.908;27.576;2022-11-06T09:14:27;1020.3;;;8.9;75.2
45113;BME280;30873;53.908;27.576;2022-11-06T09:19:27;1020.3;;;8.9;75
45113;BME280;30873;53.908;27.576;2022-11-06T09:24:43;1020.3;;;8.9;75
45113;BME280;30873;53.908;27.576;2022-11-06T09:28:53;1020.3;;;8.9;75.1
45113;BME280;30873;53.908;27.576;2022-11-06T09:34:41;1020.3;;;8.9;75.3
45113;BME280;30873;53.908;27.576;2022-11-06T09:39:13;1020.3;;;8.9;75.5
45113;BME280;30873;53.908;27.576;2022-11-06T09:44:32;1020.3;;;9;75.5
45113;BME280;30873;53.908;27.576;2022-11-06T09:48:54;1020.2;;;9;75.5
45113;BME280;30873;53.908;27.576;2022-11-06T09:53:54;1020.3;;;9;75.5
45113;BME280;30873;53.908;27.576;2022-11-06T09:59:41;1020.3;;;9;75.6
45113;BME280;30873;53.908;27.576;2022-11-06T10:04:28;1020.2;;;9.2;75.4
45113;BME280;30873;53.908;27.576;2022-11-06T10:09:09;1020.3;;;9.1;75.3
45113;BME280;30873;53.908;27.576;2022-11-06T10:14:45;1020.3;;;9.2;75.6
45113;BME280;30873;53.908;27.576;2022-11-06T10:18:55;1020.2;;;9.3;75.4
45113;BME280;30873;53.908;27.576;2022-11-06T10:24:30;1020.2;;;9.4;75.3
45113;BME280;30873;53.908;27.576;2022-11-06T10:29:34;1020.2;;;9.3;75.3
45113;BME280;30873;53.908;27.576;2022-11-06T10:34:26;1020.1;;;9.4;75.4
45113;BME280;30873;53.908;27.576;2022-11-06T10:39:41;1020.2;;;9.4;75.4
45113;BME280;30873;53.908;27.576;2022-11-06T10:44:04;1020.1;;;9.5;75.4
45113;BME280;30873;53.908;27.576;2022-11-06T10:49:40;1020.1;;;9.7;75.2
45113;BME280;30873;53.908;27.576;2022-11-06T10:54:08;1020;;;9.7;75
45113;BME280;30873;53.908;27.576;2022-11-06T10:59:29;1020;;;9.8;75.4
45113;BME280;30873;53.908;27.576;2022-11-06T11:04:05;1020;;;9.9;75.1
45113;BME280;30873;53.908;27.576;2022-11-06T11:09:24;1020.1;;;10;74.8
45113;BME280;30873;53.908;27.576;2022-11-06T11:14:21;1020.1;;;10.1;74.6
45113;BME280;30873;53.908;27.576;2022-11-06T11:19:35;1020.1;;;10.2;74.4
45113;BME280;30873;53.908;27.576;2022-11-06T11:24:05;1020.2;;;10.2;74.1
45113;BME280;30873;53.908;27.576;2022-11-06T11:29:44;1020.1;;;10.3;73.9
45113;BME280;30873;53.908;27.576;2022-11-06T11:34:05;1020;;;10.3;74
45113;BME280;30873;53.908;27.576;2022-11-06T11:39:42;1019.9;;;10.4;74
45113;BME280;30873;53.908;27.576;2022-11-06T11:44:19;1020;;;10.6;73.5
45113;BME280;30873;53.908;27.576;2022-11-06T11:49:26;1020.1;;;10.6;73.4
45113;BME280;30873;53.908;27.576;2022-11-06T11:54:33;1020;;;10.7;73.1
45113;BME280;30873;53.908;27.576;2022-11-06T11:58:54;1020;;;10.7;73.2
45113;BME280;30873;53.908;27.576;2022-11-06T12:04:41;1020;;;10.8;73.4
45113;BME280;30873;53.908;27.576;2022-11-06T12:09:41;1020.1;;;10.9;72.9
45113;BME280;30873;53.908;27.576;2022-11-06T12:14:43;1020.1;;;10.9;72.9
45113;BME280;30873;53.908;27.576;2022-11-06T12:19:17;1020.2;;;10.9;72.7
45113;BME280;30873;53.908;27.576;2022-11-06T12:24:11;1020.2;;;10.9;73.3
45113;BME280;30873;53.908;27.576;2022-11-06T12:29:20;1020.2;;;10.9;73.3
45113;BME280;30873;53.908;27.576;2022-11-06T12:34:45;1020.3;;;11;73.1
45113;BME280;30873;53.908;27.576;2022-11-06T12:39:09;1020.3;;;11.1;73.1
45113;BME280;30873;53.908;27.576;2022-11-06T12:44:44;1020.3;;;11.2;72.7
45113;BME280;30873;53.908;27.576;2022-11-06T12:50:02;1020.3;;;11.2;72.7
45113;BME280;30873;53.908;27.576;2022-11-06T12:54:41;1020.3;;;11.3;72.5
45113;BME280;30873;53.908;27.576;2022-11-06T12:59:20;1020.3;;;11.1;72.7
45113;BME280;30873;53.908;27.576;2022-11-06T13:04:27;1020.3;;;11.1;73.2
45113;BME280;30873;53.908;27.576;2022-11-06T13:09:31;1020.3;;;11.2;72.9
45113;BME280;30873;53.908;27.576;2022-11-06T13:13:56;1020.3;;;11.2;73.1
45113;BME280;30873;53.908;27.576;2022-11-06T13:19:42;1020.3;;;11.2;73.2
45113;BME280;30873;53.908;27.576;2022-11-06T13:24:42;1020.3;;;11.3;73.2
45113;BME280;30873;53.908;27.576;2022-11-06T13:29:25;1020.3;;;11.2;73
45113;BME280;30873;53.908;27.576;2022-11-06T13:33:53;1020.3;;;11.2;73.1
45113;BME280;30873;53.908;27.576;2022-11-06T13:38:52;1020.4;;;11.1;73.5
45113;BME280;30873;53.908;27.576;2022-11-06T13:44:13;1020.4;;;11.1;73.6
45113;BME280;30873;53.908;27.576;2022-11-06T13:49:45;1020.4;;;11;73.6
45113;BME280;30873;53.908;27.576;2022-11-06T13:54:13;1020.5;;;10.9;74.1
45113;BME280;30873;53.908;27.576;2022-11-06T13:59:45;1020.6;;;10.7;74.7
45113;BME280;30873;53.908;27.576;2022-11-06T14:09:41;1020.7;;;10.6;75.4
45113;BME280;30873;53.908;27.576;2022-11-06T14:14:22;1020.6;;;10.6;75.5
45113;BME280;30873;53.908;27.576;2022-11-06T14:19:25;1020.7;;;10.5;75.5
45113;BME280;30873;53.908;27.576;2022-11-06T14:24:33;1020.8;;;10.5;75.5
45113;BME280;30873;53.908;27.576;2022-11-06T14:29:55;1020.8;;;10.5;75.9
45113;BME280;30873;53.908;27.576;2022-11-06T14:34:41;1020.8;;;10.6;75.8
45113;BME280;30873;53.908;27.576;2022-11-06T14:40:12;1020.8;;;10.6;75.4
45113;BME280;30873;53.908;27.576;2022-11-06T14:44:59;1020.7;;;10.7;75.1
45113;BME280;30873;53.908;27.576;2022-11-06T14:49:27;1020.7;;;10.6;74.8
45113;BME280;30873;53.908;27.576;2022-11-06T14:54:19;1020.8;;;10.7;75
45113;BME280;30873;53.908;27.576;2022-11-06T14:59:20;1020.8;;;10.7;74.5
45113;BME280;30873;53.908;27.576;2022-11-06T15:04:44;1020.8;;;10.7;74.4
45113;BME280;30873;53.908;27.576;2022-11-06T15:08:53;1020.9;;;10.7;74.4
45113;BME280;30873;53.908;27.576;2022-11-06T15:14:51;1020.9;;;10.5;74.3
45113;BME280;30873;53.908;27.576;2022-11-06T15:18:53;1020.8;;;10.4;74.9
45113;BME280;30873;53.908;27.576;2022-11-06T15:24:44;1020.9;;;10.5;74.7
45113;BME280;30873;53.908;27.576;2022-11-06T15:29:21;1020.8;;;10.6;74.7
45113;BME280;30873;53.908;27.576;2022-11-06T15:34:41;1020.8;;;10.6;74
45113;BME280;30873;53.908;27.576;2022-11-06T15:39:30;1020.8;;;10.6;74
45113;BME280;30873;53.908;27.576;2022-11-06T15:44:05;1020.8;;;10.7;73.5
45113;BME280;30873;53.908;27.576;2022-11-06T15:49:43;1020.9;;;10.6;73.8
45113;BME280;30873;53.908;27.576;2022-11-06T15:54:41;1020.9;;;10.5;73.8
45113;BME280;30873;53.908;27.576;2022-11-06T15:59:41;1020.8;;;10.5;74
45113;BME280;30873;53.908;27.576;2022-11-06T16:04:18;1020.9;;;10.3;74
45113;BME280;30873;53.908;27.576;2022-11-06T16:09:27;1020.9;;;10.2;74.4
45113;BME280;30873;53.908;27.576;2022-11-06T16:13:53;1020.9;;;10.2;74.8
45113;BME280;30873;53.908;27.576;2022-11-06T16:19:42;1021;;;10.1;74.7
45113;BME280;30873;53.908;27.576;2022-11-06T16:24:14;1021;;;10;74.9
45113;BME280;30873;53.908;27.576;2022-11-06T16:29:26;1021;;;9.9;75
45113;BME280;30873;53.908;27.576;2022-11-06T16:33:53;1021.1;;;9.9;75.1
45113;BME280;30873;53.908;27.576;2022-11-06T16:39:24;1021.1;;;9.9;75.3
45113;BME280;30873;53.908;27.576;2022-11-06T16:44:12;1021.2;;;9.9;75.3
45113;BME280;30873;53.908;27.576;2022-11-06T16:49:41;1021.2;;;10;75.3
45113;BME280;30873;53.908;27.576;2022-11-06T16:53:56;1021.1;;;10.1;75.2
45113;BME280;30873;53.908;27.576;2022-11-06T16:59:06;1021;;;10.1;74.9
45113;BME280;30873;53.908;27.576;2022-11-06T17:04:05;1021;;;10.1;75
45113;BME280;30873;53.908;27.576;2022-11-06T17:09:39;1021;;;9.9;75.1
45113;BME280;30873;53.908;27.576;2022-11-06T17:14:41;1021;;;9.9;75.3
45113;BME280;30873;53.908;27.576;2022-11-06T17:18:53;1021;;;9.8;75.7
45113;BME280;30873;53.908;27.576;2022-11-06T17:24:05;1021.1;;;9.7;75.7
45113;BME280;30873;53.908;27.576;2022-11-06T17:28:53;1021.1;;;9.6;76
45113;BME280;30873;53.908;27.576;2022-11-06T17:34:41;1021;;;9.6;76.4
45113;BME280;30873;53.908;27.576;2022-11-06T17:39:13;1021;;;9.6;76.5
45113;BME280;30873;53.908;27.576;2022-11-06T17:44:27;1020.9;;;9.8;76.4
45113;BME280;30873;53.908;27.576;2022-11-06T17:49:18;1020.9;;;9.7;76.4
45113;BME280;30873;53.908;27.576;2022-11-06T17:53:53;1021;;;9.7;76.3
45113;BME280;30873;53.908;27.576;2022-11-06T17:58:53;1021.1;;;9.7;76.2
45113;BME280;30873;53.908;27.576;2022-11-06T18:04:29;1021.1;;;9.8;76.3
45113;BME280;30873;53.908;27.576;2022-11-06T18:09:29;1021.2;;;9.8;75.9
45113;BME280;30873;53.908;27.576;2022-11-06T18:14:05;1021.3;;;9.8;75.8
45113;BME280;30873;53.908;27.576;2022-11-06T18:18:53;1021.4;;;9.7;76
45113;BME280;30873;53.908;27.576;2022-11-06T18:24:43;1021.4;;;9.7;76.2
45113;BME280;30873;53.908;27.576;2022-11-06T18:29:41;1021.4;;;9.4;76.6
45113;BME280;30873;53.908;27.576;2022-11-06T18:34:17;1021.4;;;9.5;77.2
45113;BME280;30873;53.908;27.576;2022-11-06T18:39:04;1021.4;;;9.6;77.3
45113;BME280;30873;53.908;27.576;2022-11-06T18:44:29;1021.4;;;9.7;76.6
45113;BME280;30873;53.908;27.576;2022-11-06T18:49:43;1021.4;;;9.6;76.7
45113;BME280;30873;53.908;27.576;2022-11-06T18:54:17;1021.4;;;9.6;76.7
45113;BME280;30873;53.908;27.576;2022-11-06T18:59:29;1021.5;;;9.7;76.7
45113;BME280;30873;53.908;27.576;2022-11-06T19:03:53;1021.5;;;9.7;76.6
45113;BME280;30873;53.908;27.576;2022-11-06T19:08:53;1021.5;;;9.8;76.7
45113;BME280;30873;53.908;27.576;2022-11-06T19:14:05;1021.5;;;9.8;76.4
45113;BME280;30873;53.908;27.576;2022-11-06T19:19:27;1021.5;;;9.7;76.2
45113;BME280;30873;53.908;27.576;2022-11-06T19:24:31;1021.6;;;9.8;76.4
45113;BME280;30873;53.908;27.576;2022-11-06T19:28:51;1021.7;;;9.8;76.3
45113;BME280;30873;53.908;27.576;2022-11-06T19:34:17;1021.7;;;9.7;76.5
45113;BME280;30873;53.908;27.576;2022-11-06T19:39:39;1021.7;;;9.6;76.6
45113;BME280;30873;53.908;27.576;2022-11-06T19:44:39;1021.8;;;9.6;76.9
45113;BME280;30873;53.908;27.576;2022-11-06T19:49:29;1021.8;;;9.5;77.1
45113;BME280;30873;53.908;27.576;2022-11-06T19:54:05;1021.8;;;9.5;77.2
45113;BME280;30873;53.908;27.576;2022-11-06T19:59:05;1021.9;;;9.4;77.2
45113;BME280;30873;53.908;27.576;2022-11-06T20:04:43;1021.9;;;9.3;77.4
45113;BME280;30873;53.908;27.576;2022-11-06T20:09:13;1021.9;;;9.4;77.6
45113;BME280;30873;53.908;27.576;2022-11-06T20:14:29;1021.9;;;9.4;77.3
45113;BME280;30873;53.908;27.576;2022-11-06T20:19:41;1021.9;;;9.3;77.2
45113;BME280;30873;53.908;27.576;2022-11-06T20:24:18;1021.8;;;9.3;77.6
45113;BME280;30873;53.908;27.576;2022-11-06T20:29:31;1021.8;;;9.3;77.3
45113;BME280;30873;53.908;27.576;2022-11-06T20:34:29;1021.8;;;9.3;77.1
45113;BME280;30873;53.908;27.576;2022-11-06T20:39:27;1021.8;;;9.4;76.8
45113;BME280;30873;53.908;27.576;2022-11-06T20:44:43;1021.8;;;9.4;76.8
45113;BME280;30873;53.908;27.576;2022-11-06T20:49:43;1021.8;;;9.5;76.7
45113;BME280;30873;53.908;27.576;2022-11-06T20:54:27;1021.8;;;9.6;76.3
45113;BME280;30873;53.908;27.576;2022-11-06T20:59:15;1021.8;;;9.6;76
45113;BME280;30873;53.908;27.576;2022-11-06T21:04:41;1021.8;;;9.6;76.4
45113;BME280;30873;53.908;27.576;2022-11-06T21:09:03;1021.8;;;9.6;76.1
45113;BME280;30873;53.908;27.576;2022-11-06T21:13:53;1021.7;;;9.7;76.1
45113;BME280;30873;53.908;27.576;2022-11-06T21:19:03;1021.6;;;9.7;75.8
45113;BME280;30873;53.908;27.576;2022-11-06T21:24:43;1021.6;;;9.8;75.7
45113;BME280;30873;53.908;27.576;2022-11-06T21:29:43;1021.6;;;9.8;75.2
45113;BME280;30873;53.908;27.576;2022-11-06T21:34:43;1021.6;;;9.8;75.3
45113;BME280;30873;53.908;27.576;2022-11-06T21:39:16;1021.6;;;9.8;75.3
45113;BME280;30873;53.908;27.576;2022-11-06T21:44:29;1021.6;;;9.7;75.1
45113;BME280;30873;53.908;27.576;2022-11-06T21:49:29;1021.6;;;9.5;75.6
45113;BME280;30873;53.908;27.576;2022-11-06T21:54:17;1021.6;;;9.4;75.7
45113;BME280;30873;53.908;27.576;2022-11-06T21:59:39;1021.5;;;9.4;76.1
45113;BME280;30873;53.908;27.576;2022-11-06T22:04:01;1021.4;;;9.5;76.1
45113;BME280;30873;53.908;27.576;2022-11-06T22:09:23;1021.4;;;9.5;75.7
45113;BME280;30873;53.908;27.576;2022-11-06T22:14:10;1021.4;;;9.5;75.6
45113;BME280;30873;53.908;27.576;2022-11-06T22:19:39;1021.4;;;9.4;75.7
45113;BME280;30873;53.908;27.576;2022-11-06T22:24:06;1021.4;;;9.4;75.7
45113;BME280;30873;53.908;27.576;2022-11-06T22:28:54;1021.4;;;9.4;75.9
45113;BME280;30873;53.908;27.576;2022-11-06T22:34:11;1021.5;;;9.4;75.7
45113;BME280;30873;53.908;27.576;2022-11-06T22:39:39;1021.5;;;9.1;75.3
45113;BME280;30873;53.908;27.576;2022-11-06T22:44:39;1021.5;;;9.1;76
45113;BME280;30873;53.908;27.576;2022-11-06T22:49:35;1021.5;;;9;75.5
45113;BME280;30873;53.908;27.576;2022-11-06T22:54:01;1021.5;;;8.9;75.9
45113;BME280;30873;53.908;27.576;2022-11-06T22:59:21;1021.5;;;8.7;76
45113;BME280;30873;53.908;27.576;2022-11-06T23:04:25;1021.5;;;8.7;76.1
45113;BME280;30873;53.908;27.576;2022-11-06T23:09:21;1021.6;;;8.7;76.1
45113;BME280;30873;53.908;27.576;2022-11-06T23:14:39;1021.6;;;8.7;76
45113;BME280;30873;53.908;27.576;2022-11-06T23:19:23;1021.6;;;8.7;75.9
45113;BME280;30873;53.908;27.576;2022-11-06T23:24:13;1021.6;;;8.8;75.5
45113;BME280;30873;53.908;27.576;2022-11-06T23:29:11;1021.6;;;8.7;75.7
45113;BME280;30873;53.908;27.576;2022-11-06T23:34:39;1021.6;;;8.8;76
45113;BME280;30873;53.908;27.576;2022-11-06T23:39:11;1021.6;;;8.9;75.8
45113;BME280;30873;53.908;27.576;2022-11-06T23:44:09;1021.5;;;8.9;75.8
45113;BME280;30873;53.908;27.576;2022-11-06T23:49:13;1021.4;;;8.9;75.6
45113;BME280;30873;53.908;27.576;2022-11-06T23:54:37;1021.5;;;9;75.5
45113;BME280;30873;53.908;27.576;2022-11-06T23:59:42;1021.5;;;9.1;75.2
